createdAt,value
2019-04-21T00:01:34.709Z,8.53
2019-04-21T00:04:12.463Z,9.03
2019-04-21T00:06:58.783Z,7.22
2019-04-21T00:09:26.053Z,7.58
2019-04-21T00:11:55.613Z,7.70
2019-04-21T00:14:22.697Z,7.85
2019-04-21T00:16:49.072Z,9.18
2019-04-21T00:19:19.078Z,7.15
2019-04-21T00:21:50.999Z,8.35
2019-04-21T00:24:28.946Z,7.95
2019-04-21T00:27:07.022Z,8.03
2019-04-21T00:32:05.248Z,8.35
2019-04-21T00:34:21.755Z,8.40
2019-04-21T00:37:03.102Z,6.83
2019-04-21T00:39:59.212Z,8.55
2019-04-21T00:42:14.557Z,6.55
2019-04-21T00:44:36.359Z,7.10
2019-04-21T00:47:16.906Z,6.55
2019-04-21T00:49:53.916Z,7.33
2019-04-21T00:52:58.117Z,6.75
2019-04-21T00:55:20.368Z,7.30
2019-04-21T00:57:44.948Z,7.20
2019-04-21T01:00:11.918Z,7.05
2019-04-21T01:05:17.918Z,6.72
2019-04-21T01:10:09.587Z,6.50
2019-04-21T01:12:53.218Z,7.37
2019-04-21T01:15:26.142Z,7.80
2019-04-21T01:17:51.946Z,7.58
2019-04-21T01:20:13.229Z,6.62
2019-04-21T01:22:30.762Z,7.15
2019-04-21T01:25:09.076Z,6.90
2019-04-21T01:27:49.404Z,7.85
2019-04-21T01:30:22.266Z,6.62
2019-04-21T01:32:57.572Z,8.85
2019-04-21T01:35:30.104Z,6.87
2019-04-21T01:38:01.933Z,7.42
2019-04-21T01:40:41.009Z,6.97
2019-04-21T01:43:06.141Z,6.92
2019-04-21T01:45:31.795Z,7.97
2019-04-21T01:48:03.606Z,7.62
2019-04-21T01:50:36.288Z,7.37
2019-04-21T01:53:17.325Z,7.75
2019-04-21T01:55:54.417Z,7.30
2019-04-21T01:58:25.482Z,7.37
2019-04-21T02:01:00.778Z,6.92
2019-04-21T02:06:18.524Z,8.25
2019-04-21T02:08:36.494Z,7.50
2019-04-21T02:13:46.840Z,8.18
2019-04-21T02:16:20.209Z,7.62
2019-04-21T02:18:44.436Z,6.75
2019-04-21T02:21:09.487Z,7.75
2019-04-21T02:23:54.305Z,8.93
2019-04-21T02:26:23.077Z,7.97
2019-04-21T02:28:56.302Z,8.30
2019-04-21T02:31:37.103Z,7.78
2019-04-21T02:34:18.446Z,7.75
2019-04-21T02:39:16.466Z,9.30
2019-04-21T02:41:45.052Z,7.75
2019-04-21T02:44:22.480Z,7.67
2019-04-21T02:46:46.697Z,8.25
2019-04-21T02:50:04.914Z,9.20
2019-04-21T02:51:42.051Z,9.75
2019-04-21T02:56:58.626Z,9.03
2019-04-21T03:04:53.298Z,8.80
2019-04-21T03:07:21.602Z,9.15
2019-04-21T03:09:49.708Z,8.80
2019-04-21T03:12:22.086Z,8.83
2019-04-21T03:17:48.796Z,8.80
2019-04-21T03:20:03.012Z,9.28
2019-04-21T03:22:32.465Z,9.80
2019-04-21T03:27:57.362Z,9.53
2019-04-21T03:30:10.946Z,8.40
2019-04-21T03:37:37.006Z,9.90
2019-04-21T03:45:25.333Z,10.55
2019-04-21T03:47:44.894Z,10.88
2019-04-21T03:50:22.732Z,10.25
2019-04-21T03:52:53.703Z,10.32
2019-04-21T04:01:00.384Z,10.45
2019-04-21T04:16:19.671Z,9.65
2019-04-21T04:18:53.766Z,9.93
2019-04-21T04:21:22.548Z,10.20
2019-04-21T04:28:56.272Z,9.50
2019-04-21T04:36:40.507Z,9.53
2019-04-21T04:39:26.115Z,9.40
2019-04-21T04:44:30.319Z,9.80
2019-04-21T04:47:01.842Z,10.20
2019-04-21T04:49:36.418Z,10.50
2019-04-21T04:52:10.134Z,10.90
2019-04-21T04:54:40.927Z,11.35
2019-04-21T05:04:39.669Z,9.63
2019-04-21T05:09:30.681Z,8.95
2019-04-21T05:12:20.992Z,9.35
2019-04-21T05:14:41.049Z,9.08
2019-04-21T05:17:03.861Z,9.60
2019-04-21T05:19:42.833Z,8.33
2019-04-21T05:22:12.178Z,9.05
2019-04-21T05:24:30.319Z,7.22
2019-04-21T05:26:58.465Z,8.88
2019-04-21T05:29:37.792Z,8.70
2019-04-21T05:32:17.277Z,10.08
2019-04-21T05:34:50.406Z,9.70
2019-04-21T05:37:25.851Z,9.68
2019-04-21T05:39:52.315Z,9.73
2019-04-21T05:42:23.823Z,8.85
2019-04-21T05:47:39.802Z,9.80
2019-04-21T05:50:06.419Z,8.55
2019-04-21T05:52:35.311Z,10.75
2019-04-21T05:55:16.861Z,9.33
2019-04-21T05:57:47.883Z,9.80
2019-04-21T06:00:19.671Z,9.40
2019-04-21T06:02:52.012Z,8.63
2019-04-21T06:07:53.755Z,10.23
2019-04-21T06:10:27.427Z,9.98
2019-04-21T06:12:59.905Z,10.15
2019-04-21T06:15:41.745Z,10.95
2019-04-21T06:18:06.403Z,7.95
2019-04-21T06:20:33.465Z,9.18
2019-04-21T06:23:04.235Z,8.68
2019-04-21T06:28:12.167Z,6.77
2019-04-21T06:30:54.924Z,8.57
2019-04-21T06:33:10.728Z,8.17
2019-04-21T06:36:07.790Z,9.37
2019-04-21T06:38:28.232Z,8.97
2019-04-21T06:40:50.102Z,8.77
2019-04-21T06:43:42.051Z,8.23
2019-04-21T06:45:55.802Z,8.27
2019-04-21T06:48:28.473Z,9.63
2019-04-21T06:51:03.170Z,9.63
2019-04-21T06:53:35.787Z,8.37
2019-04-21T06:56:02.033Z,7.63
2019-04-21T06:58:27.839Z,8.90
2019-04-21T07:01:05.464Z,9.27
2019-04-21T07:03:38.885Z,8.60
2019-04-21T07:06:08.120Z,7.80
2019-04-21T07:08:44.794Z,8.90
2019-04-21T07:11:12.437Z,8.60
2019-04-21T07:13:41.583Z,7.50
2019-04-21T07:16:12.039Z,8.80
2019-04-21T07:18:54.150Z,8.30
2019-04-21T07:21:14.127Z,8.67
2019-04-21T07:23:48.935Z,9.43
2019-04-21T07:26:23.775Z,9.63
2019-04-21T07:28:59.795Z,8.43
2019-04-21T07:31:20.795Z,8.37
2019-04-21T07:34:02.003Z,8.80
2019-04-21T07:36:30.510Z,8.80
2019-04-21T07:38:49.739Z,9.23
2019-04-21T07:41:15.819Z,7.97
2019-04-21T07:43:55.255Z,8.60
2019-04-21T07:46:25.625Z,8.83
2019-04-21T07:49:07.442Z,9.23
2019-04-21T07:51:56.538Z,8.00
2019-04-21T07:54:32.044Z,8.17
2019-04-21T07:56:39.869Z,8.57
2019-04-21T07:59:40.889Z,8.63
2019-04-21T08:01:56.403Z,8.87
2019-04-21T08:04:49.558Z,9.77
2019-04-21T08:06:57.156Z,7.57
2019-04-21T08:09:33.083Z,8.30
2019-04-21T08:12:01.388Z,7.90
2019-04-21T08:14:49.430Z,8.80
2019-04-21T08:17:03.217Z,7.87
2019-04-21T08:19:33.818Z,9.00
2019-04-21T08:22:12.657Z,8.87
2019-04-21T08:24:35.224Z,7.40
2019-04-21T08:27:14.186Z,8.60
2019-04-21T08:29:42.096Z,7.87
2019-04-21T08:34:43.242Z,9.00
2019-04-21T08:37:15.118Z,7.33
2019-04-21T08:39:59.408Z,7.47
2019-04-21T08:42:18.529Z,7.60
2019-04-21T08:44:50.007Z,7.27
2019-04-21T08:47:20.428Z,7.67
2019-04-21T08:49:47.582Z,7.77
2019-04-21T08:52:36.250Z,6.97
2019-04-21T08:55:11.149Z,7.50
2019-04-21T08:58:00.408Z,7.07
2019-04-21T09:00:32.399Z,8.73
2019-04-21T09:03:11.730Z,8.67
2019-04-21T09:05:35.690Z,7.40
2019-04-21T09:08:10.577Z,7.77
2019-04-21T09:10:42.227Z,7.53
2019-04-21T09:13:10.274Z,6.90
2019-04-21T09:15:41.910Z,6.20
2019-04-21T09:18:11.967Z,7.60
2019-04-21T09:23:15.432Z,7.67
2019-04-21T09:25:53.175Z,7.13
2019-04-21T09:28:16.720Z,6.70
2019-04-21T09:30:39.631Z,6.83
2019-04-21T09:33:05.283Z,6.63
2019-04-21T09:35:35.812Z,6.33
2019-04-21T09:38:17.112Z,7.33
2019-04-21T09:40:42.332Z,6.20
2019-04-21T09:43:11.375Z,7.97
2019-04-21T09:45:40.506Z,6.70
2019-04-21T09:48:16.694Z,7.53
2019-04-21T09:50:41.530Z,6.77
2019-04-21T09:53:20.684Z,6.70
2019-04-21T09:55:50.534Z,7.07
2019-04-21T09:58:24.217Z,7.20
2019-04-21T10:00:57.285Z,6.87
2019-04-21T10:03:17.993Z,6.73
2019-04-21T10:05:47.695Z,6.30
2019-04-21T10:08:17.232Z,6.10
2019-04-21T10:10:46.920Z,8.00
2019-04-21T10:13:17.129Z,6.80
2019-04-21T10:15:48.572Z,5.90
2019-04-21T10:18:22.745Z,6.90
2019-04-21T10:20:52.220Z,6.87
2019-04-21T10:23:21.804Z,7.00
2019-04-21T10:25:52.279Z,6.90
2019-04-21T10:28:23.000Z,6.17
2019-04-21T10:30:52.932Z,7.30
2019-04-21T10:33:22.390Z,5.90
2019-04-21T10:35:52.981Z,7.07
2019-04-21T10:38:30.201Z,5.53
2019-04-21T10:40:53.822Z,5.73
2019-04-21T10:43:24.365Z,7.40
2019-04-21T10:45:54.869Z,5.17
2019-04-21T10:48:25.210Z,5.73
2019-04-21T10:50:54.995Z,5.03
2019-04-21T10:53:27.013Z,5.77
2019-04-21T10:56:10.478Z,5.57
2019-04-21T10:58:34.046Z,5.90
2019-04-21T11:01:14.413Z,5.00
2019-04-21T11:04:00.530Z,5.67
2019-04-21T11:06:30.882Z,4.73
2019-04-21T11:09:03.049Z,5.90
2019-04-21T11:11:32.083Z,4.70
2019-04-21T11:14:02.445Z,4.63
2019-04-21T11:16:33.224Z,4.30
2019-04-21T11:19:03.945Z,4.80
2019-04-21T11:21:34.630Z,4.97
2019-04-21T11:24:04.310Z,5.40
2019-04-21T11:26:33.939Z,5.70
2019-04-21T11:29:05.091Z,6.00
2019-04-21T11:31:34.738Z,6.10
2019-04-21T11:34:05.142Z,5.23
2019-04-21T11:36:35.306Z,4.40
2019-04-21T11:39:22.014Z,5.10
2019-04-21T11:41:39.921Z,5.10
2019-04-21T11:44:09.875Z,5.17
2019-04-21T11:46:40.402Z,5.03
2019-04-21T11:49:10.426Z,6.10
2019-04-21T11:51:40.775Z,4.50
2019-04-21T11:54:10.846Z,4.00
2019-04-21T11:56:40.963Z,5.70
2019-04-21T11:59:10.533Z,4.37
2019-04-21T12:01:41.457Z,4.77
2019-04-21T12:04:11.737Z,4.03
2019-04-21T12:06:45.419Z,5.10
2019-04-21T12:09:12.512Z,5.03
2019-04-21T12:11:43.253Z,4.33
2019-04-21T12:14:14.118Z,4.50
2019-04-21T12:16:43.760Z,4.93
2019-04-21T12:19:14.296Z,4.43
2019-04-21T12:21:54.563Z,4.50
2019-04-21T12:24:15.412Z,4.67
2019-04-21T12:26:46.251Z,4.73
2019-04-21T12:29:16.673Z,4.47
2019-04-21T12:32:05.541Z,4.80
2019-04-21T12:34:36.260Z,4.53
2019-04-21T12:37:06.680Z,4.43
2019-04-21T12:39:36.882Z,4.47
2019-04-21T12:42:06.820Z,3.77
2019-04-21T12:44:37.153Z,5.00
2019-04-21T12:47:07.947Z,4.40
2019-04-21T12:49:38.096Z,5.13
2019-04-21T12:52:11.435Z,4.50
2019-04-21T12:54:41.791Z,4.77
2019-04-21T12:57:11.822Z,3.70
2019-04-21T12:59:42.530Z,4.13
2019-04-21T13:02:13.640Z,3.70
2019-04-21T13:04:43.959Z,4.30
2019-04-21T13:07:13.623Z,4.70
2019-04-21T13:09:44.328Z,4.70
2019-04-21T13:12:15.229Z,4.10
2019-04-21T13:14:44.826Z,5.10
2019-04-21T13:17:15.224Z,5.17
2019-04-21T13:19:45.302Z,4.63
2019-04-21T13:22:16.068Z,4.00
2019-04-21T13:24:45.626Z,4.70
2019-04-21T13:27:15.609Z,3.77
2019-04-21T13:29:46.233Z,4.50
2019-04-21T13:32:16.361Z,4.83
2019-04-21T13:34:46.290Z,4.10
2019-04-21T13:37:17.554Z,3.80
2019-04-21T13:40:21.115Z,4.10
2019-04-21T13:42:39.978Z,4.93
2019-04-21T13:45:08.229Z,4.40
2019-04-21T13:47:38.668Z,4.23
2019-04-21T13:50:11.078Z,4.83
2019-04-21T13:52:40.813Z,4.27
2019-04-21T13:55:11.849Z,4.00
2019-04-21T13:57:41.408Z,4.73
2019-04-21T14:00:13.061Z,4.07
2019-04-21T14:02:42.871Z,3.97
2019-04-21T14:05:15.491Z,4.10
2019-04-21T14:07:44.149Z,3.97
2019-04-21T14:10:16.040Z,3.80
2019-04-21T14:12:46.754Z,3.37
2019-04-21T14:15:18.074Z,4.63
2019-04-21T14:17:48.916Z,3.97
2019-04-21T14:20:19.527Z,4.23
2019-04-21T14:22:49.685Z,4.00
2019-04-21T14:25:19.622Z,4.03
2019-04-21T14:27:51.903Z,3.90
2019-04-21T14:30:22.771Z,3.90
2019-04-21T14:32:53.994Z,3.57
2019-04-21T14:35:25.015Z,3.67
2019-04-21T14:37:54.719Z,4.00
2019-04-21T14:40:27.631Z,3.30
2019-04-21T14:42:56.197Z,3.90
2019-04-21T14:45:40.697Z,3.73
2019-04-21T14:48:29.447Z,4.00
2019-04-21T14:51:04.584Z,4.30
2019-04-21T14:53:36.071Z,3.70
2019-04-21T14:56:07.064Z,3.93
2019-04-21T14:58:37.096Z,3.93
2019-04-21T15:01:08.315Z,4.50
2019-04-21T15:03:39.478Z,4.60
2019-04-21T15:06:09.373Z,3.70
2019-04-21T15:08:39.495Z,4.20
2019-04-21T15:11:09.600Z,3.70
2019-04-21T15:13:39.701Z,4.27
2019-04-21T15:16:09.295Z,4.60
2019-04-21T15:18:39.062Z,3.83
2019-04-21T15:21:08.753Z,4.20
2019-04-21T15:23:38.367Z,4.10
2019-04-21T15:26:08.288Z,3.83
2019-04-21T15:28:39.101Z,3.90
2019-04-21T15:31:13.445Z,4.23
2019-04-21T15:33:41.241Z,4.57
2019-04-21T15:36:11.269Z,4.37
2019-04-21T15:38:40.843Z,4.47
2019-04-21T15:41:10.948Z,3.90
2019-04-21T15:43:42.611Z,3.97
2019-04-21T15:46:13.054Z,4.60
2019-04-21T15:48:42.770Z,3.80
2019-04-21T15:51:13.574Z,4.40
2019-04-21T15:53:45.817Z,4.57
2019-04-21T15:56:28.995Z,3.87
2019-04-21T15:58:58.935Z,4.00
2019-04-21T16:01:28.334Z,4.03
2019-04-21T16:04:00.411Z,4.40
2019-04-21T16:06:29.671Z,4.10
2019-04-21T16:09:01.050Z,3.57
2019-04-21T16:11:31.632Z,4.07
2019-04-21T16:14:01.875Z,4.33
2019-04-21T16:16:32.691Z,4.30
2019-04-21T16:19:03.926Z,4.60
2019-04-21T16:21:38.394Z,4.43
2019-04-21T16:24:04.794Z,4.43
2019-04-21T16:26:34.995Z,4.90
2019-04-21T16:29:05.055Z,3.90
2019-04-21T16:31:34.691Z,4.17
2019-04-21T16:34:05.128Z,4.77
2019-04-21T16:36:35.849Z,3.57
2019-04-21T16:39:07.641Z,4.70
2019-04-21T16:41:38.342Z,3.80
2019-04-21T16:44:09.423Z,4.00
2019-04-21T16:46:38.937Z,4.10
2019-04-21T16:49:09.627Z,4.90
2019-04-21T16:51:40.301Z,4.47
2019-04-21T16:54:11.448Z,7.03
2019-04-21T16:56:45.690Z,4.27
2019-04-21T16:59:16.870Z,5.10
2019-04-21T17:01:46.842Z,4.40
2019-04-21T17:04:16.419Z,3.77
2019-04-21T17:06:47.131Z,4.70
2019-04-21T17:09:16.849Z,4.60
2019-04-21T17:11:46.971Z,4.30
2019-04-21T17:14:37.544Z,3.60
2019-04-21T17:17:15.652Z,4.80
2019-04-21T17:19:27.800Z,4.40
2019-04-21T17:21:52.103Z,3.77
2019-04-21T17:24:22.190Z,3.80
2019-04-21T17:26:53.213Z,3.47
2019-04-21T17:29:22.919Z,4.40
2019-04-21T17:31:53.199Z,4.77
2019-04-21T17:34:26.133Z,4.70
2019-04-21T17:36:55.058Z,4.50
2019-04-21T17:39:24.928Z,4.50
2019-04-21T17:42:05.271Z,4.17
2019-04-21T17:44:25.823Z,4.07
2019-04-21T17:47:01.416Z,4.57
2019-04-21T17:49:26.715Z,4.43
2019-04-21T17:52:19.468Z,3.90
2019-04-21T17:55:10.273Z,4.20
2019-04-21T17:57:54.465Z,3.80
2019-04-21T18:00:53.555Z,4.33
2019-04-21T18:03:01.899Z,4.07
2019-04-21T18:05:34.144Z,4.57
2019-04-21T18:07:54.568Z,4.20
2019-04-21T18:10:33.948Z,4.43
2019-04-21T18:12:59.246Z,4.90
2019-04-21T18:15:37.169Z,4.53
2019-04-21T18:17:52.473Z,5.77
2019-04-21T18:20:41.907Z,4.73
2019-04-21T18:23:44.342Z,5.03
2019-04-21T18:26:08.116Z,6.57
2019-04-21T18:28:34.684Z,5.47
2019-04-21T18:31:06.899Z,5.40
2019-04-21T18:33:40.491Z,5.20
2019-04-21T18:36:22.546Z,4.87
2019-04-21T18:39:04.185Z,5.20
2019-04-21T18:41:19.574Z,5.13
2019-04-21T18:47:07.313Z,5.47
2019-04-21T18:49:17.729Z,4.60
2019-04-21T18:52:18.143Z,6.23
2019-04-21T18:54:48.724Z,4.93
2019-04-21T18:57:17.253Z,5.03
2019-04-21T18:59:43.067Z,5.13
2019-04-21T19:02:13.571Z,4.87
2019-04-21T19:04:42.786Z,4.23
2019-04-21T19:07:27.550Z,5.50
2019-04-21T19:15:00.095Z,5.50
2019-04-21T19:22:38.740Z,5.40
2019-04-21T19:25:12.905Z,5.80
2019-04-21T19:27:42.230Z,5.37
2019-04-21T19:30:20.239Z,4.57
2019-04-21T19:32:45.445Z,4.90
2019-04-21T19:35:01.883Z,5.40
2019-04-21T19:37:40.089Z,4.87
2019-04-21T19:40:15.907Z,5.00
2019-04-21T19:42:43.776Z,6.27
2019-04-21T19:45:22.206Z,6.37
2019-04-21T19:47:56.528Z,5.10
2019-04-21T19:50:28.722Z,6.43
2019-04-21T19:52:54.516Z,8.37
2019-04-21T19:55:14.115Z,8.73
2019-04-21T19:57:45.038Z,9.70
2019-04-21T20:00:15.977Z,7.90
2019-04-21T20:02:46.368Z,7.43
2019-04-21T20:05:28.219Z,5.40
2019-04-21T20:08:05.011Z,7.80
2019-04-21T20:10:39.678Z,6.73
2019-04-21T20:13:14.747Z,6.10
2019-04-21T20:15:41.616Z,5.80
2019-04-21T20:18:05.979Z,6.10
2019-04-21T20:20:24.874Z,6.47
2019-04-21T20:22:56.071Z,6.13
2019-04-21T20:25:27.236Z,5.40
2019-04-21T20:28:04.965Z,6.17
2019-04-21T20:30:42.387Z,6.13
2019-04-21T20:35:58.704Z,5.90
2019-04-21T20:38:15.671Z,7.70
2019-04-21T20:40:41.208Z,6.40
2019-04-21T20:43:28.960Z,7.50
2019-04-21T20:46:00.444Z,7.17
2019-04-21T20:48:17.742Z,7.30
2019-04-21T20:51:00.564Z,8.43
2019-04-21T20:53:25.992Z,6.70
2019-04-21T20:55:52.895Z,7.00
2019-04-21T20:58:28.102Z,8.57
2019-04-21T21:01:20.276Z,7.63
2019-04-21T21:03:34.850Z,7.10
2019-04-21T21:05:58.572Z,7.73
2019-04-21T21:08:35.815Z,6.50
2019-04-21T21:11:00.259Z,6.77
2019-04-21T21:13:53.758Z,6.70
2019-04-21T21:16:13.998Z,6.87
2019-04-21T21:18:56.508Z,6.13
2019-04-21T21:21:11.423Z,7.07
2019-04-21T21:23:44.770Z,6.33
2019-04-21T21:26:16.021Z,5.57
2019-04-21T21:28:38.978Z,5.93
2019-04-21T21:31:24.923Z,6.47
2019-04-21T21:33:57.447Z,6.43
2019-04-21T21:36:19.635Z,7.20
2019-04-21T21:38:55.889Z,7.93
2019-04-21T21:41:14.069Z,7.20
2019-04-21T21:43:39.167Z,7.07
2019-04-21T21:46:27.164Z,6.93
2019-04-21T21:48:53.855Z,6.67
2019-04-21T21:51:20.522Z,6.58
2019-04-21T21:53:44.413Z,9.10
2019-04-21T21:56:14.489Z,7.65
2019-04-21T21:58:46.210Z,7.45
2019-04-21T22:01:20.956Z,7.10
2019-04-21T22:03:52.544Z,7.45
2019-04-21T22:06:23.376Z,6.40
2019-04-21T22:08:50.536Z,6.40
2019-04-21T22:11:20.194Z,6.60
2019-04-21T22:13:58.816Z,7.33
2019-04-21T22:16:23.000Z,7.05
2019-04-21T22:19:14.211Z,8.35
2019-04-21T22:21:41.534Z,8.20
2019-04-21T22:24:00.253Z,6.72
2019-04-21T22:26:27.264Z,7.87
2019-04-21T22:28:58.152Z,7.50
2019-04-21T22:31:32.180Z,7.35
2019-04-21T22:34:05.436Z,7.05
2019-04-21T22:36:44.422Z,6.85
2019-04-21T22:39:19.290Z,7.17
2019-04-21T22:41:39.238Z,7.65
2019-04-21T22:44:04.886Z,6.92
2019-04-21T22:46:36.036Z,7.10
2019-04-21T22:49:09.369Z,6.58
2019-04-21T22:51:41.521Z,6.35
2019-04-21T22:54:08.305Z,7.50
2019-04-21T22:56:50.469Z,6.78
2019-04-21T22:59:15.024Z,5.65
2019-04-21T23:01:46.101Z,5.92
2019-04-21T23:04:12.458Z,6.45
2019-04-21T23:06:44.303Z,5.55
2019-04-21T23:09:15.029Z,6.00
2019-04-21T23:11:49.179Z,5.85
2019-04-21T23:14:17.538Z,5.90
2019-04-21T23:16:53.661Z,6.05
2019-04-21T23:19:34.850Z,6.67
2019-04-21T23:22:12.125Z,5.55
2019-04-21T23:24:49.709Z,6.33
2019-04-21T23:27:09.228Z,6.95
2019-04-21T23:29:57.344Z,7.08
2019-04-21T23:32:11.009Z,6.33
2019-04-21T23:34:32.428Z,7.28
2019-04-21T23:37:03.220Z,6.45
2019-04-21T23:39:31.996Z,8.73
2019-04-21T23:42:01.335Z,6.62
2019-04-21T23:44:32.924Z,6.67
2019-04-21T23:47:06.480Z,8.05
2019-04-21T23:49:42.589Z,5.85
2019-04-21T23:52:09.981Z,7.25
2019-04-21T23:54:37.489Z,5.97
2019-04-21T23:57:14.085Z,7.53
2019-04-21T23:59:44.722Z,5.90
